Time;durP1;ratioP1;P1;durP2;ratioP2;P2;SDS_P1;SDS_P2;PMS_P1;PMS_P2;Temp;Humidity;BMP_temperature;BMP_pressure;BME280_temperature;BME280_humidity;BME280_pressure;Samples;Min_cycle;Max_cycle;Signal;HPM_P1;HPM_P2
2022/07/24 00:00:09;;;;;;;15.00;7.30;;;15.30;99.90;;;-144.05;80.20;125687.94;6157106;23;20006;-90
2022/07/24 00:02:35;;;;;;;10.77;7.30;;;15.40;99.90;;;-144.05;80.34;125687.94;6158418;23;20084;-90
2022/07/24 00:05:02;;;;;;;14.55;7.55;;;15.50;99.90;;;-144.05;80.30;125687.94;6132796;23;20010;-90
2022/07/24 00:07:29;;;;;;;9.95;7.28;;;15.50;99.90;;;-144.05;80.37;125687.94;6158225;23;20320;-90
2022/07/24 00:09:55;;;;;;;8.77;6.90;;;15.50;99.90;;;-144.05;80.15;125687.94;6157507;23;20016;-90
2022/07/24 00:12:21;;;;;;;8.23;6.80;;;15.50;99.90;;;-144.05;80.29;125687.94;6156800;23;20013;-90
2022/07/24 00:14:47;;;;;;;10.13;7.32;;;15.40;99.90;;;-144.05;80.22;125687.94;6157735;23;20012;-89
2022/07/24 00:17:13;;;;;;;9.35;7.07;;;15.40;99.90;;;-144.05;80.18;125687.94;6157723;23;20005;-91
2022/07/24 00:19:39;;;;;;;8.93;6.72;;;15.40;99.90;;;-144.05;80.07;125687.94;6157785;23;20093;-90
2022/07/24 00:22:05;;;;;;;10.15;6.80;;;15.40;99.90;;;-144.05;79.94;125687.94;6157798;23;20012;-91
2022/07/24 00:24:31;;;;;;;7.55;6.68;;;15.40;99.90;;;-144.05;80.00;125687.94;6157183;23;20009;-90
2022/07/24 00:26:57;;;;;;;8.63;6.47;;;15.40;99.90;;;-144.05;79.79;125687.94;6157222;23;20005;-91
2022/07/24 00:29:24;;;;;;;9.15;6.20;;;15.30;99.90;;;-144.05;79.82;125687.94;6132609;23;20041;-91
2022/07/24 00:31:49;;;;;;;11.68;6.95;;;15.30;99.90;;;-144.05;79.95;125687.94;6156915;23;20332;-91
2022/07/24 00:34:15;;;;;;;9.18;6.35;;;15.30;99.90;;;-144.05;79.70;125687.94;6157625;23;20005;-92
2022/07/24 00:36:43;;;;;;;13.10;6.55;;;15.30;99.90;;;-144.05;79.88;125687.94;6157127;23;20458;-89
2022/07/24 00:39:10;;;;;;;9.57;6.50;;;15.30;99.90;;;-144.05;79.96;125687.94;6157939;23;20006;-91
2022/07/24 03:43:06;;;;;;;7.75;5.20;;;16.30;99.90;;;-144.05;69.00;125687.94;6106780;23;20022;-91
2022/07/24 03:45:32;;;;;;;10.32;5.20;;;16.40;99.90;;;-144.05;69.02;125687.94;6133081;23;20051;-89
2022/07/24 03:47:58;;;;;;;6.53;4.85;;;16.40;99.90;;;-144.05;68.69;125687.94;6134192;23;20335;-90
2022/07/24 03:50:24;;;;;;;6.43;4.70;;;16.40;99.90;;;-144.05;68.79;125687.94;6158582;23;20036;-91
2022/07/24 03:52:50;;;;;;;7.55;4.45;;;16.40;99.90;;;-144.05;68.75;125687.94;6158624;23;20005;-91
2022/07/24 03:55:17;;;;;;;7.43;4.57;;;16.40;99.90;;;-144.05;69.14;125687.94;6157634;23;20010;-90
2022/07/24 03:57:44;;;;;;;6.57;4.68;;;16.30;99.90;;;-144.05;69.52;125687.94;6158039;23;20005;-92
2022/07/24 04:02:45;;;;;;;6.43;5.13;;;16.30;99.90;;;-144.05;69.53;125687.94;6109017;23;20022;-90
2022/07/24 04:05:13;;;;;;;6.10;4.20;;;16.20;99.90;;;-144.05;69.48;125687.94;6089983;23;20014;-90
2022/07/24 04:07:39;;;;;;;8.43;4.80;;;16.30;99.90;;;-144.05;69.70;125687.94;6086420;23;20340;-89
2022/07/24 04:10:08;;;;;;;9.80;4.82;;;16.40;99.90;;;-144.05;69.65;125687.94;6075216;23;20485;-89
2022/07/24 04:12:34;;;;;;;5.40;4.78;;;16.40;99.90;;;-144.05;69.58;125687.94;6098751;23;20017;-88
2022/07/24 04:15:00;;;;;;;7.47;5.25;;;16.40;99.90;;;-144.05;69.56;125687.94;6074044;23;20018;-87
2022/07/24 04:17:26;;;;;;;5.35;4.40;;;16.40;99.90;;;-144.05;69.41;125687.94;6074682;23;20047;-89
2022/07/24 04:19:52;;;;;;;6.90;5.32;;;16.40;99.90;;;-144.05;69.71;125687.94;6098217;23;20009;-87
2022/07/24 04:22:18;;;;;;;5.65;4.57;;;16.30;99.90;;;-144.05;69.97;125687.94;6100260;23;20329;-89
2022/07/24 04:24:44;;;;;;;5.10;4.30;;;16.40;99.90;;;-144.05;70.16;125687.94;6074290;23;20011;-88
2022/07/24 04:27:10;;;;;;;8.02;5.10;;;16.30;99.90;;;-144.05;70.47;125687.94;6099434;23;20010;-89
2022/07/24 04:29:36;;;;;;;7.95;4.30;;;16.30;99.90;;;-144.05;70.24;125687.94;6100748;23;20007;-90
2022/07/24 04:32:01;;;;;;;6.25;4.70;;;16.30;99.90;;;-144.05;70.52;125687.94;6098659;23;20022;-87
2022/07/24 04:34:27;;;;;;;6.25;4.07;;;16.30;99.90;;;-144.05;70.75;125687.94;6074424;23;20012;-88
2022/07/24 04:36:53;;;;;;;5.68;4.75;;;16.30;99.90;;;-144.05;70.82;125687.94;6098609;23;20433;-90
2022/07/24 04:39:19;;;;;;;8.95;4.95;;;16.30;99.90;;;-144.05;70.89;125687.94;6075121;23;20013;-87
2022/07/24 04:41:45;;;;;;;7.55;4.80;;;16.40;99.90;;;-144.05;70.41;125687.94;6074954;23;20084;-89
2022/07/24 04:44:11;;;;;;;6.75;4.72;;;16.40;99.90;;;-144.05;70.37;125687.94;6074733;23;20394;-88
2022/07/24 04:46:37;;;;;;;8.30;4.72;;;16.50;99.90;;;-144.05;70.03;125687.94;6098538;23;20007;-90
2022/07/24 04:49:03;;;;;;;6.13;4.57;;;16.50;99.90;;;-144.05;69.46;125687.94;6074181;23;20360;-88
2022/07/24 04:51:29;;;;;;;5.93;4.78;;;16.60;99.90;;;-144.05;69.01;125687.94;6075605;23;20006;-90
2022/07/24 04:53:55;;;;;;;6.38;4.68;;;16.80;99.90;;;-144.05;69.16;125687.94;6075014;23;20010;-89
2022/07/24 04:56:21;;;;;;;5.82;4.45;;;16.80;99.90;;;-144.05;68.91;125687.94;6075311;23;20352;-88
2022/07/24 04:58:48;;;;;;;8.32;4.85;;;16.80;99.90;;;-144.05;68.61;125687.94;6074935;23;20034;-91
2022/07/24 05:01:15;;;;;;;5.43;4.32;;;17.00;99.90;;;-144.05;68.42;125687.94;6100011;23;20109;-89
2022/07/24 05:03:41;;;;;;;5.60;4.05;;;16.90;99.90;;;-144.05;68.18;125687.94;6101704;23;20006;-88
2022/07/24 05:06:07;;;;;;;5.22;4.72;;;17.10;99.90;;;-144.05;67.88;125687.94;6075570;23;20030;-89
2022/07/24 05:08:33;;;;;;;5.18;4.60;;;17.20;99.90;;;-144.05;67.61;125687.94;6100015;23;20014;-89
2022/07/24 05:10:59;;;;;;;7.53;4.72;;;17.30;99.90;;;-144.05;67.49;125687.94;6099072;23;20444;-88
2022/07/24 05:13:25;;;;;;;6.07;4.57;;;17.40;99.90;;;-144.05;66.77;125687.94;6098997;23;20015;-88
2022/07/24 05:15:50;;;;;;;4.60;4.05;;;17.60;99.90;;;-144.05;66.31;125687.94;6099728;23;20313;-88
2022/07/24 05:18:16;;;;;;;5.90;4.47;;;17.80;99.90;;;-144.05;65.29;125687.94;6074930;23;20014;-87
2022/07/24 05:20:42;;;;;;;5.80;4.95;;;17.90;99.90;;;-144.05;64.60;125687.94;6074825;23;20077;-89
2022/07/24 05:23:09;;;;;;;6.75;4.90;;;18.10;99.90;;;-144.05;62.73;125687.94;6099770;23;20038;-89
2022/07/24 05:25:36;;;;;;;4.30;3.88;;;18.40;99.90;;;-144.05;62.18;125687.94;6076986;23;20014;-88
2022/07/24 05:28:02;;;;;;;6.57;4.45;;;18.60;99.90;;;-144.05;61.38;125687.94;6103576;23;20460;-88
2022/07/24 05:30:28;;;;;;;6.97;4.43;;;18.80;99.90;;;-144.05;60.25;125687.94;6076516;23;20021;-88
2022/07/24 05:32:54;;;;;;;6.28;4.25;;;19.10;99.90;;;-144.05;59.17;125687.94;6076467;23;20108;-87
2022/07/24 05:35:20;;;;;;;5.30;3.70;;;19.30;99.90;;;-144.05;58.12;125687.94;6100588;23;20015;-88
2022/07/24 05:37:47;;;;;;;4.57;4.00;;;19.50;99.90;;;-144.05;57.66;125687.94;6077082;23;20066;-89
2022/07/24 05:40:13;;;;;;;4.30;3.67;;;19.70;99.90;;;-144.05;56.95;125687.94;6101566;23;20017;-88
2022/07/24 05:42:39;;;;;;;5.18;4.30;;;19.70;99.90;;;-144.05;56.62;125687.94;6076587;23;20006;-89
2022/07/24 05:45:05;;;;;;;5.70;3.65;;;19.90;99.90;;;-144.05;56.09;125687.94;6102491;23;20290;-87
2022/07/24 05:47:41;;;;;;;6.55;4.05;;;20.10;99.90;;;-144.05;55.10;125687.94;6102854;23;20007;-87
2022/07/24 05:50:13;;;;;;;5.53;4.03;;;20.40;99.90;;;-144.05;54.55;125687.94;6100461;23;20006;-88
2022/07/24 05:52:40;;;;;;;5.72;4.10;;;20.50;99.90;;;-144.05;54.14;125687.94;6076722;23;20011;-87
2022/07/24 05:55:08;;;;;;;8.43;4.32;;;20.70;99.90;;;-144.05;54.19;125687.94;6076213;23;20082;-87
2022/07/24 05:57:34;;;;;;;4.72;3.80;;;20.80;99.90;;;-144.05;53.80;125687.94;6099886;23;20038;-86
2022/07/24 06:00:02;;;;;;;5.80;4.05;;;20.80;99.90;;;-144.05;53.77;125687.94;6099738;23;20006;-87
2022/07/24 06:02:28;;;;;;;5.30;3.88;;;21.00;99.90;;;-144.05;52.96;125687.94;6099502;23;20124;-87
2022/07/24 06:04:54;;;;;;;6.20;3.95;;;21.20;99.90;;;-144.05;51.83;125687.94;6076803;23;20014;-88
2022/07/24 06:07:20;;;;;;;4.28;3.88;;;21.40;99.90;;;-144.05;51.88;125687.94;6076731;23;20428;-88
2022/07/24 06:09:46;;;;;;;5.38;4.18;;;21.50;99.90;;;-144.05;51.20;125687.94;6078543;23;20002;-88
2022/07/24 06:12:11;;;;;;;4.70;3.85;;;21.70;99.90;;;-144.05;50.67;125687.94;6076566;23;20014;-88
2022/07/24 06:14:38;;;;;;;5.70;4.47;;;21.80;99.90;;;-144.05;50.54;125687.94;6076213;23;20038;-89
2022/07/24 06:17:03;;;;;;;5.95;3.33;;;22.00;99.90;;;-144.05;49.88;125687.94;6111955;23;20038;-86
2022/07/24 06:19:29;;;;;;;7.28;3.75;;;22.10;99.90;;;-144.05;49.37;125687.94;6089816;23;20104;-92
2022/07/24 06:21:55;;;;;;;5.60;3.70;;;22.30;99.90;;;-144.05;49.07;125687.94;6106769;23;20014;-90
2022/07/24 06:24:21;;;;;;;4.97;3.72;;;22.50;99.90;;;-144.05;48.76;125687.94;6100662;23;20061;-88
2022/07/24 06:26:47;;;;;;;6.72;3.55;;;22.60;99.90;;;-144.05;48.29;125687.94;6075804;23;20030;-89
2022/07/24 06:29:13;;;;;;;5.28;3.88;;;22.90;99.90;;;-144.05;47.55;125687.94;6100491;23;20010;-88
2022/07/24 06:31:39;;;;;;;4.50;3.70;;;22.90;99.90;;;-144.05;47.69;125687.94;6076206;23;20467;-88
2022/07/24 06:34:05;;;;;;;4.75;3.53;;;23.10;99.90;;;-144.05;47.06;125687.94;6101457;23;20074;-91
2022/07/24 06:36:31;;;;;;;4.97;3.83;;;23.20;99.90;;;-144.05;46.48;125687.94;6076173;23;20113;-90
2022/07/24 06:38:56;;;;;;;4.80;3.88;;;23.30;99.90;;;-144.05;46.02;125687.94;6101130;23;20002;-87
2022/07/24 06:41:22;;;;;;;5.43;3.40;;;23.50;99.90;;;-144.05;46.37;125687.94;6075864;23;20352;-89
2022/07/24 06:43:48;;;;;;;7.57;3.22;;;23.60;99.90;;;-144.05;45.25;125687.94;6076996;23;20006;-88
2022/07/24 06:46:15;;;;;;;5.28;3.17;;;23.70;99.90;;;-144.05;45.12;125687.94;6076140;23;20006;-89
2022/07/24 06:48:41;;;;;;;5.60;3.08;;;23.80;99.90;;;-144.05;44.67;125687.94;6076220;23;20007;-87
2022/07/24 06:51:07;;;;;;;4.60;3.40;;;23.90;99.90;;;-144.05;44.49;125687.94;6076637;23;20105;-91
2022/07/24 06:53:32;;;;;;;4.70;3.72;;;24.00;99.90;;;-144.05;44.92;125687.94;6099647;23;20054;-88
2022/07/24 06:55:58;;;;;;;4.05;3.45;;;24.00;99.90;;;-144.05;44.74;125687.94;6100589;23;20010;-89
2022/07/24 06:58:24;;;;;;;6.38;3.72;;;24.20;99.90;;;-144.05;44.51;125687.94;6074790;23;20006;-89
2022/07/24 07:00:50;;;;;;;4.13;3.45;;;24.30;99.90;;;-144.05;43.96;125687.94;6075266;23;20013;-88
2022/07/24 07:03:17;;;;;;;4.88;2.85;;;24.60;99.90;;;-144.05;42.74;125687.94;6076619;23;19999;-90
2022/07/24 07:05:43;;;;;;;5.35;3.10;;;25.00;99.90;;;-144.05;42.61;125687.94;6098744;23;20468;-89
2022/07/24 07:08:08;;;;;;;4.32;3.50;;;25.00;99.90;;;-144.05;42.40;125687.94;6075339;23;20100;-90
2022/07/24 07:10:34;;;;;;;5.22;3.28;;;25.30;99.90;;;-144.05;41.88;125687.94;6076344;23;20050;-89
2022/07/24 07:13:00;;;;;;;3.92;3.33;;;25.50;99.90;;;-144.05;41.26;125687.94;6075332;23;20010;-88
2022/07/24 07:15:26;;;;;;;5.65;3.58;;;25.50;99.90;;;-144.05;41.68;125687.94;6075861;23;20499;-88
2022/07/24 07:17:52;;;;;;;6.05;3.60;;;25.50;99.90;;;-144.05;41.34;125687.94;6100485;23;20325;-90
2022/07/24 07:20:19;;;;;;;6.53;3.00;;;25.40;99.90;;;-144.05;41.86;125687.94;6100683;23;20065;-91
2022/07/24 07:22:45;;;;;;;4.65;3.50;;;25.60;99.90;;;-144.05;41.22;125687.94;6099367;23;20041;-91
2022/07/24 07:25:13;;;;;;;6.97;3.20;;;25.70;99.90;;;-144.05;41.21;125687.94;6100819;23;20003;-89
2022/07/24 07:27:40;;;;;;;5.75;3.28;;;25.90;99.90;;;-144.05;39.51;125687.94;6075377;23;20400;-88
2022/07/24 07:30:09;;;;;;;3.22;2.85;;;26.30;99.90;;;-144.05;38.76;125687.94;6076179;23;20011;-88
2022/07/24 07:32:35;;;;;;;4.40;3.20;;;26.60;99.90;;;-144.05;38.31;125687.94;6100249;23;20090;-88
2022/07/24 07:35:01;;;;;;;4.40;3.35;;;26.80;99.40;;;-144.05;38.90;125687.94;6075235;23;20010;-90
2022/07/24 07:37:27;;;;;;;4.75;3.20;;;27.00;99.90;;;-144.05;38.13;125687.94;6076012;23;20093;-90
2022/07/24 07:39:54;;;;;;;4.35;2.70;;;27.10;98.50;;;-144.05;37.81;125687.94;6078099;23;20016;-90
2022/07/24 07:42:35;;;;;;;5.00;3.20;;;27.40;98.60;;;-144.05;36.25;125687.94;6100339;23;20014;-91
2022/07/24 07:45:01;;;;;;;3.67;2.88;;;27.50;95.10;;;-144.05;36.94;125687.94;6100335;23;20017;-87
2022/07/24 07:47:27;;;;;;;4.28;3.15;;;27.50;95.30;;;-144.05;37.16;125687.94;6076035;23;20002;-89
2022/07/24 07:49:53;;;;;;;4.32;2.75;;;27.50;95.20;;;-144.05;37.30;125687.94;6101953;23;20089;-91
2022/07/24 07:52:19;;;;;;;4.88;3.00;;;27.40;94.50;;;-144.05;37.80;125687.94;6077157;23;20017;-88
2022/07/24 07:54:45;;;;;;;5.13;3.25;;;27.40;95.10;;;-144.05;37.17;125687.94;6079660;23;20006;-90
2022/07/24 07:57:11;;;;;;;4.03;3.10;;;27.50;95.20;;;-144.05;36.59;125687.94;6081138;23;20089;-89
2022/07/24 07:59:37;;;;;;;4.07;3.10;;;27.70;94.30;;;-144.05;35.99;125687.94;6101935;23;20046;-89
2022/07/24 08:02:03;;;;;;;4.85;2.85;;;28.00;93.20;;;-144.05;35.62;125687.94;6078231;23;20408;-89
2022/07/24 08:04:29;;;;;;;5.97;2.95;;;27.90;92.00;;;-144.05;35.47;125687.94;6078665;23;20017;-89
2022/07/24 08:06:55;;;;;;;5.07;3.35;;;28.00;91.50;;;-144.05;36.28;125687.94;6103651;23;20038;-88
2022/07/24 08:09:21;;;;;;;5.25;3.17;;;28.00;92.30;;;-144.05;35.67;125687.94;6102275;23;20093;-88
2022/07/24 08:11:47;;;;;;;3.92;2.95;;;28.20;91.70;;;-144.05;35.17;125687.94;6078417;23;20010;-89
2022/07/24 08:14:13;;;;;;;3.92;2.88;;;28.50;91.70;;;-144.05;34.90;125687.94;6103435;23;20037;-89
2022/07/24 08:16:38;;;;;;;4.63;3.22;;;28.90;91.30;;;-144.05;35.21;125687.94;6076795;23;20333;-88
2022/07/24 08:19:06;;;;;;;4.53;3.35;;;28.60;88.90;;;-144.05;35.18;125687.94;6074956;23;20014;-89
2022/07/24 08:21:32;;;;;;;6.20;3.42;;;28.70;90.20;;;-144.05;34.07;125687.94;6098512;23;20006;-87
2022/07/24 08:23:58;;;;;;;3.47;3.03;;;28.90;86.30;;;-144.05;33.87;125687.94;6101400;23;20014;-87
2022/07/24 08:26:24;;;;;;;5.55;3.00;;;29.10;85.50;;;-144.05;33.39;125687.94;6098828;23;20018;-88
2022/07/24 08:28:50;;;;;;;4.30;3.10;;;29.20;84.50;;;-144.05;33.82;125687.94;6108691;23;20013;-86
2022/07/24 08:31:16;;;;;;;5.70;3.50;;;29.30;85.60;;;-144.05;33.65;125687.94;6111677;23;20017;-90
2022/07/24 08:33:42;;;;;;;5.82;3.00;;;29.30;82.00;;;-144.05;34.55;125687.94;6079299;23;20019;-90
2022/07/24 08:36:09;;;;;;;5.25;2.90;;;29.00;83.10;;;-144.05;34.55;125687.94;6080718;23;20010;-90
2022/07/24 08:38:34;;;;;;;4.60;3.10;;;29.20;85.90;;;-144.05;33.86;125687.94;6104555;23;20116;-89
2022/07/24 08:41:01;;;;;;;5.20;2.95;;;29.50;84.50;;;-144.05;32.73;125687.94;6078678;23;20011;-90
2022/07/24 08:43:28;;;;;;;5.03;3.08;;;29.60;80.90;;;-144.05;33.35;125687.94;6077331;23;20012;-88
2022/07/24 08:45:56;;;;;;;3.53;2.92;;;29.70;80.90;;;-144.05;32.99;125687.94;6078101;23;20026;-90
2022/07/24 08:48:23;;;;;;;3.88;3.08;;;29.80;79.80;;;-144.05;33.33;125687.94;6102557;23;20010;-90
2022/07/24 08:50:53;;;;;;;5.53;2.90;;;30.00;81.40;;;-144.05;33.11;125687.94;6078125;23;20006;-90
2022/07/24 08:53:23;;;;;;;4.68;3.50;;;30.00;81.00;;;-144.05;32.46;125687.94;6101535;23;20010;-88
2022/07/24 08:55:49;;;;;;;6.55;3.55;;;30.20;78.40;;;-144.05;32.78;125687.94;6097679;23;20006;-88
2022/07/24 08:58:15;;;;;;;6.15;3.50;;;29.90;76.90;;;-144.05;32.80;125687.94;6099777;23;20013;-89
2022/07/24 09:00:41;;;;;;;4.25;3.40;;;30.20;78.90;;;-144.05;32.30;125687.94;6102418;23;20006;-90
2022/07/24 09:03:07;;;;;;;3.97;3.22;;;30.30;76.60;;;-144.05;31.95;125687.94;6078486;23;20089;-89
2022/07/24 09:05:52;;;;;;;3.40;3.10;;;30.20;75.30;;;-144.05;32.25;125687.94;6102476;23;20010;-89
2022/07/24 09:08:19;;;;;;;4.20;3.47;;;30.40;77.70;;;-144.05;31.44;125687.94;6076703;23;20185;-91
2022/07/24 09:11:05;;;;;;;5.10;3.30;;;30.30;73.20;;;-144.05;31.79;125687.94;6075129;23;20011;-91
2022/07/24 09:16:25;;;;;;;6.38;4.00;;;30.30;75.50;;;-144.05;31.83;125687.94;6101602;23;20017;-89
2022/07/24 09:19:24;;;;;;;4.15;3.50;;;30.30;72.90;;;-144.05;31.66;125687.94;6100794;23;20133;-91
2022/07/24 09:21:53;;;;;;;6.65;3.88;;;30.40;72.80;;;-144.05;31.30;125687.94;6076198;23;20032;-90
2022/07/24 09:24:23;;;;;;;6.97;4.50;;;30.30;71.20;;;-144.05;31.76;125687.94;6099882;23;20081;-90
2022/07/24 09:26:55;;;;;;;6.75;4.28;;;30.00;71.20;;;-144.05;32.02;125687.94;6076498;23;20037;-88
2022/07/24 09:29:25;;;;;;;5.18;3.67;;;30.00;71.70;;;-144.05;31.83;125687.94;6075283;23;20010;-90
2022/07/24 09:31:54;;;;;;;6.10;4.07;;;30.10;71.70;;;-144.05;31.53;125687.94;6075156;23;20077;-88
2022/07/24 09:34:21;;;;;;;5.68;4.43;;;30.30;71.90;;;-144.05;31.02;125687.94;6075683;23;20020;-89
2022/07/24 09:37:04;;;;;;;7.05;3.63;;;30.30;69.60;;;-144.05;31.14;125687.94;6075363;23;20021;-90
2022/07/24 09:39:36;;;;;;;6.40;4.20;;;30.40;70.00;;;-144.05;31.15;125687.94;6076045;23;20011;-91
2022/07/24 09:42:06;;;;;;;7.10;4.30;;;30.40;70.40;;;-144.05;31.38;125687.94;6101329;23;20033;-89
2022/07/24 09:44:33;;;;;;;8.55;4.55;;;30.20;69.80;;;-144.05;31.66;125687.94;6099492;23;20010;-90
2022/07/24 09:47:04;;;;;;;5.82;4.20;;;30.30;71.40;;;-144.05;31.65;125687.94;6099360;23;20074;-91
2022/07/24 09:49:31;;;;;;;6.55;4.07;;;30.40;70.40;;;-144.05;30.94;125687.94;6099467;23;20010;-91
2022/07/24 09:52:05;;;;;;;6.25;4.45;;;30.60;69.40;;;-144.05;31.83;125687.94;6101464;23;20437;-87
2022/07/24 09:54:38;;;;;;;6.13;4.13;;;30.80;72.60;;;-144.05;30.36;125687.94;6076845;23;20010;-90
2022/07/24 09:57:26;;;;;;;5.88;4.55;;;31.00;68.20;;;-144.05;30.51;125687.94;6076407;23;20085;-89
2022/07/24 09:59:58;;;;;;;7.80;4.30;;;30.90;66.90;;;-144.05;30.21;125687.94;6102619;23;20103;-91
2022/07/24 10:05:03;;;;;;;4.82;3.80;;;30.60;68.00;;;-144.05;30.75;125687.94;6072394;23;20022;-86
2022/07/24 10:07:58;;;;;;;7.38;4.28;;;30.70;67.80;;;-144.05;30.82;125687.94;6070858;23;20441;-86
2022/07/24 10:10:32;;;;;;;4.65;3.83;;;30.70;66.90;;;-144.05;30.48;125687.94;6027407;23;20082;-87
2022/07/24 10:13:01;;;;;;;7.25;4.43;;;31.10;67.80;;;-144.05;30.28;125687.94;6041828;23;20083;-87
2022/07/24 10:15:40;;;;;;;5.88;3.80;;;31.20;65.70;;;-144.05;30.85;125687.94;6042662;23;20070;-88
2022/07/24 10:18:16;;;;;;;6.95;4.03;;;31.20;69.00;;;-144.05;30.94;125687.94;6043461;23;20062;-88
2022/07/24 10:20:45;;;;;;;7.00;4.60;;;31.00;66.00;;;-144.05;31.43;125687.94;6018737;23;20019;-88
2022/07/24 10:23:28;;;;;;;4.18;3.78;;;31.00;67.60;;;-144.05;30.47;125687.94;6042542;23;20077;-87
2022/07/24 10:26:07;;;;;;;6.03;4.20;;;31.20;65.70;;;-144.05;30.52;125687.94;6018619;23;20011;-87
2022/07/24 10:28:43;;;;;;;8.85;4.00;;;31.40;67.00;;;-144.05;29.30;125687.94;6042334;23;20018;-88
2022/07/24 10:31:16;;;;;;;5.53;3.72;;;31.60;63.70;;;-144.05;30.46;125687.94;6042531;23;20319;-88
2022/07/24 10:33:54;;;;;;;7.32;4.82;;;31.40;64.60;;;-144.05;29.97;125687.94;6042819;23;20470;-87
2022/07/24 10:36:49;;;;;;;5.32;4.40;;;31.40;64.10;;;-144.05;30.83;125687.94;6019272;23;20023;-89
2022/07/24 10:39:33;;;;;;;4.60;3.85;;;30.80;63.40;;;-144.05;31.30;125687.94;6019207;23;20011;-87
2022/07/24 10:42:06;;;;;;;6.65;4.03;;;30.60;65.90;;;-144.05;31.19;125687.94;6019897;23;20013;-89
2022/07/24 10:44:38;;;;;;;4.82;3.85;;;31.00;68.90;;;-144.05;30.00;125687.94;6019429;23;20087;-88
2022/07/24 10:47:14;;;;;;;4.85;3.35;;;31.30;64.60;;;-144.05;29.87;125687.94;6060502;23;20003;-86
2022/07/24 10:49:49;;;;;;;4.97;3.92;;;31.50;64.80;;;-144.05;30.50;125687.94;6028047;23;20019;-88
2022/07/24 10:52:36;;;;;;;5.53;4.00;;;31.40;64.20;;;-144.05;29.85;125687.94;6040539;23;20007;-88
2022/07/24 10:55:33;;;;;;;5.13;4.22;;;31.30;63.90;;;-144.05;30.50;125687.94;6017221;23;20017;-89
2022/07/24 10:58:15;;;;;;;8.65;3.75;;;31.20;63.40;;;-144.05;30.45;125687.94;6040292;23;20015;-88
2022/07/24 11:00:50;;;;;;;5.38;4.28;;;31.40;64.80;;;-144.05;30.30;125687.94;6042203;23;20008;-88
2022/07/24 11:03:33;;;;;;;5.80;4.18;;;31.70;64.50;;;-144.05;29.86;125687.94;6017291;23;20015;-89
2022/07/24 11:06:14;;;;;;;8.70;3.83;;;31.90;64.20;;;-144.05;30.69;125687.94;6016732;23;20040;-88
2022/07/24 11:08:51;;;;;;;4.85;4.10;;;31.80;65.60;;;-144.05;31.09;125687.94;6017663;23;20445;-87
2022/07/24 11:11:21;;;;;;;5.35;4.05;;;31.90;63.30;;;-144.05;30.94;125687.94;6017186;23;20102;-87
2022/07/24 11:14:01;;;;;;;6.00;4.35;;;32.10;65.40;;;-144.05;30.32;125687.94;6017455;23;20011;-88
2022/07/24 11:16:33;;;;;;;6.28;4.20;;;32.00;62.60;;;-144.05;29.77;125687.94;6016649;23;20087;-86
2022/07/24 11:19:02;;;;;;;4.85;4.00;;;31.90;61.50;;;-144.05;29.86;125687.94;6018286;23;20333;-89
2022/07/24 11:21:44;;;;;;;5.10;4.53;;;32.00;62.40;;;-144.05;29.71;125687.94;6016805;23;20430;-89
2022/07/24 11:24:21;;;;;;;4.28;3.88;;;32.10;61.70;;;-144.05;30.12;125687.94;6017204;23;20023;-88
2022/07/24 11:27:13;;;;;;;5.57;4.00;;;31.70;60.70;;;-144.05;30.26;125687.94;6017465;23;20015;-88
2022/07/24 11:29:39;;;;;;;4.78;3.65;;;31.70;61.70;;;-144.05;29.54;125687.94;6017093;23;20045;-88
2022/07/24 11:32:17;;;;;;;8.18;4.03;;;31.70;60.40;;;-144.05;29.95;125687.94;6017217;23;20015;-88
2022/07/24 11:35:08;;;;;;;4.93;4.05;;;31.80;61.20;;;-144.05;29.53;125687.94;6042256;23;20017;-88
2022/07/24 11:37:39;;;;;;;5.50;3.63;;;31.60;60.10;;;-144.05;29.24;125687.94;6043424;23;20022;-88
2022/07/24 11:40:08;;;;;;;5.53;4.05;;;31.40;57.80;;;-144.05;30.23;125687.94;6017077;23;20011;-86
2022/07/24 11:42:35;;;;;;;6.50;4.30;;;31.50;61.70;;;-144.05;29.69;125687.94;6043369;23;20013;-87
2022/07/24 11:45:04;;;;;;;5.70;4.38;;;31.50;60.20;;;-144.05;28.57;125687.94;6015783;23;20346;-88
2022/07/24 11:47:32;;;;;;;5.80;3.75;;;31.90;58.60;;;-144.05;29.21;125687.94;6040062;23;20039;-88
2022/07/24 11:50:06;;;;;;;6.80;4.00;;;31.80;59.20;;;-144.05;29.51;125687.94;6015043;23;20012;-88
2022/07/24 11:52:40;;;;;;;6.13;4.22;;;32.10;60.20;;;-144.05;29.67;125687.94;6038344;23;20039;-89
2022/07/24 11:55:18;;;;;;;4.75;4.00;;;32.20;60.70;;;-144.05;29.37;125687.94;6014080;23;20253;-90
2022/07/24 11:57:49;;;;;;;4.45;4.00;;;32.10;59.90;;;-144.05;28.72;125687.94;6015187;23;20158;-90
2022/07/24 12:00:26;;;;;;;5.70;4.05;;;32.30;59.90;;;-144.05;29.24;125687.94;6015032;23;20086;-88
2022/07/24 12:03:05;;;;;;;6.97;4.03;;;32.70;60.90;;;-144.05;28.90;125687.94;6015605;23;20071;-88
2022/07/24 12:06:20;;;;;;;;;;;;;;;;;;;;;
2022/07/24 12:09:19;;;;;;;5.30;3.70;;;33.20;59.30;;;-144.05;28.37;125687.94;6037918;23;20082;-89
2022/07/24 12:11:58;;;;;;;5.00;4.03;;;33.60;59.20;;;-144.05;27.42;125687.94;6009813;23;20040;-90
2022/07/24 12:14:24;;;;;;;7.72;4.20;;;33.20;55.80;;;-144.05;28.21;125687.94;6038607;23;20346;-89
2022/07/24 12:17:19;;;;;;;6.53;3.97;;;33.30;57.40;;;-144.05;27.46;125687.94;6062389;23;20011;-91
2022/07/24 12:20:09;;;;;;;5.13;4.18;;;33.10;55.60;;;-144.05;27.82;125687.94;6014515;23;20035;-87
2022/07/24 12:23:07;;;;;;;4.43;3.90;;;33.00;56.70;;;-144.05;28.93;125687.94;6015690;23;20367;-88
2022/07/24 12:25:34;;;;;;;4.78;4.00;;;32.70;57.80;;;-144.05;28.08;125687.94;6014878;23;20011;-89
2022/07/24 12:28:23;;;;;;;;;;;;;;;;;;;;;
2022/07/24 12:31:26;;;;;;;;;;;;;;;;;;;;;
2022/07/24 12:34:00;;;;;;;4.75;3.92;;;33.00;57.60;;;-144.05;27.43;125687.94;6040318;23;20094;-88
2022/07/24 12:36:34;;;;;;;4.07;3.25;;;33.00;54.70;;;-144.05;26.97;125687.94;6014951;23;20011;-87
2022/07/24 12:39:00;;;;;;;6.00;4.00;;;32.90;54.70;;;-144.05;28.26;125687.94;6039699;23;20003;-86
2022/07/24 12:41:30;;;;;;;4.57;3.50;;;33.10;58.00;;;-144.05;27.79;125687.94;6015778;23;20244;-87
2022/07/24 12:44:03;;;;;;;4.35;3.05;;;33.20;56.40;;;-144.05;27.11;125687.94;6039822;23;20008;-86
2022/07/24 12:46:44;;;;;;;5.35;3.47;;;33.20;54.30;;;-144.05;27.09;125687.94;6018241;23;20011;-87
2022/07/24 12:49:13;;;;;;;7.05;3.25;;;33.10;54.30;;;-144.05;27.16;125687.94;6043414;23;20035;-89
2022/07/24 12:51:59;;;;;;;4.53;3.72;;;32.80;54.00;;;-144.05;28.29;125687.94;6037879;23;20012;-88
2022/07/24 12:54:34;;;;;;;5.03;3.88;;;32.70;55.90;;;-144.05;28.06;125687.94;6040328;23;20003;-89
2022/07/24 12:57:13;;;;;;;4.30;3.38;;;32.70;55.70;;;-144.05;27.08;125687.94;6018935;23;20050;-89
2022/07/24 12:59:45;;;;;;;4.47;3.13;;;32.70;53.90;;;-144.05;27.46;125687.94;6017229;23;20007;-88
2022/07/24 13:02:23;;;;;;;4.78;3.80;;;32.80;55.10;;;-144.05;27.36;125687.94;6042524;23;20038;-89
2022/07/24 13:04:58;;;;;;;5.07;3.55;;;33.10;54.80;;;-144.05;28.10;125687.94;6018291;23;20011;-87
2022/07/24 13:07:25;;;;;;;;;;;33.00;55.70;;;-144.05;27.42;125687.94;6042043;23;20011;-88
2022/07/24 13:09:52;;;;;;;5.28;4.10;;;33.00;54.90;;;-144.05;27.16;125687.94;6017982;23;19912;-89
2022/07/24 13:12:25;;;;;;;4.72;3.70;;;32.70;52.90;;;-144.05;28.07;125687.94;6017505;23;20105;-89
2022/07/24 13:14:51;;;;;;;4.40;3.65;;;32.60;55.10;;;-144.05;28.66;125687.94;6065577;23;20387;-88
2022/07/24 13:17:19;;;;;;;4.13;3.42;;;32.80;58.10;;;-144.05;26.31;125687.94;6041508;23;20026;-89
2022/07/24 13:19:50;;;;;;;4.45;3.17;;;32.90;52.50;;;-144.05;26.60;125687.94;6018077;23;20433;-89
2022/07/24 13:22:18;;;;;;;5.13;3.50;;;32.90;52.30;;;-144.05;27.39;125687.94;6042362;23;20007;-89
2022/07/24 13:24:45;;;;;;;3.72;3.30;;;32.70;53.70;;;-144.05;27.49;125687.94;6043982;23;20003;-90